createdAt,value
2018-03-04T00:00:39.822Z,0.00
2018-03-04T00:01:39.811Z,0.00
2018-03-04T00:02:39.736Z,0.00
2018-03-04T00:03:39.700Z,0.00
2018-03-04T00:04:39.645Z,0.00
2018-03-04T00:05:39.603Z,0.00
2018-03-04T00:06:39.555Z,0.00
2018-03-04T00:07:39.551Z,0.00
2018-03-04T00:08:39.468Z,0.00
2018-03-04T00:09:39.421Z,0.00
2018-03-04T00:10:39.370Z,0.00
2018-03-04T00:11:39.327Z,0.00
2018-03-04T00:12:39.309Z,0.00
2018-03-04T00:13:39.237Z,0.00
2018-03-04T00:14:39.190Z,0.00
2018-03-04T00:15:49.408Z,0.00
2018-03-04T00:16:39.109Z,0.00
2018-03-04T00:17:39.081Z,0.00
2018-03-04T00:18:39.013Z,0.00
2018-03-04T00:19:38.963Z,0.00
2018-03-04T00:20:38.924Z,0.00
2018-03-04T00:21:38.895Z,0.00
2018-03-04T00:22:38.855Z,0.00
2018-03-04T00:23:38.787Z,0.00
2018-03-04T00:24:38.743Z,0.00
2018-03-04T00:25:38.700Z,0.00
2018-03-04T00:26:38.654Z,0.00
2018-03-04T00:27:38.634Z,0.00
2018-03-04T00:28:38.561Z,0.00
2018-03-04T00:29:38.510Z,0.00
2018-03-04T00:30:38.462Z,0.00
2018-03-04T00:31:38.423Z,0.00
2018-03-04T00:32:38.409Z,0.00
2018-03-04T00:33:38.338Z,0.00
2018-03-04T00:34:38.292Z,0.00
2018-03-04T00:35:38.247Z,0.00
2018-03-04T00:36:38.194Z,0.00
2018-03-04T00:37:38.159Z,0.00
2018-03-04T00:38:38.131Z,0.00
2018-03-04T00:39:38.066Z,0.00
2018-03-04T00:40:38.021Z,0.00
2018-03-04T00:41:37.976Z,0.00
2018-03-04T00:42:37.930Z,0.00
2018-03-04T00:43:37.913Z,0.00
2018-03-04T00:44:37.842Z,0.00
2018-03-04T00:45:47.952Z,0.00
2018-03-04T00:46:37.754Z,0.00
2018-03-04T00:47:37.701Z,0.00
2018-03-04T00:48:37.654Z,0.00
2018-03-04T00:49:37.639Z,0.00
2018-03-04T00:50:37.570Z,0.00
2018-03-04T00:51:37.530Z,0.00
2018-03-04T00:52:37.474Z,0.00
2018-03-04T00:53:37.433Z,0.00
2018-03-04T00:54:37.405Z,0.00
2018-03-04T00:55:37.344Z,0.00
2018-03-04T00:56:37.315Z,0.00
2018-03-04T00:57:37.253Z,0.00
2018-03-04T00:58:37.210Z,0.00
2018-03-04T00:59:37.188Z,0.00
2018-03-04T01:00:37.125Z,0.00
2018-03-04T01:01:37.087Z,0.00
2018-03-04T01:02:37.025Z,0.00
2018-03-04T01:03:36.988Z,0.00
2018-03-04T01:04:36.959Z,0.00
2018-03-04T01:05:36.896Z,0.00
2018-03-04T01:06:36.843Z,0.00
2018-03-04T01:07:36.810Z,0.00
2018-03-04T01:08:36.756Z,0.00
2018-03-04T01:09:36.745Z,0.00
2018-03-04T01:10:36.670Z,0.00
2018-03-04T01:11:36.642Z,0.00
2018-03-04T01:12:36.581Z,0.00
2018-03-04T01:13:36.534Z,0.00
2018-03-04T01:14:36.492Z,0.00
2018-03-04T01:15:36.469Z,0.00
2018-03-04T01:16:36.414Z,0.00
2018-03-04T01:17:36.388Z,0.00
2018-03-04T01:18:36.312Z,0.00
2018-03-04T01:19:36.298Z,0.00
2018-03-04T01:20:36.225Z,0.00
2018-03-04T01:21:36.169Z,0.00
2018-03-04T01:22:36.140Z,0.00
2018-03-04T01:23:36.088Z,0.00
2018-03-04T01:24:36.047Z,0.00
2018-03-04T01:25:36.016Z,0.00
2018-03-04T01:26:35.996Z,0.00
2018-03-04T01:27:35.907Z,0.00
2018-03-04T01:28:35.857Z,0.00
2018-03-04T01:29:35.814Z,0.00
2018-03-04T01:30:35.794Z,0.00
2018-03-04T01:31:35.724Z,0.00
2018-03-04T01:32:35.683Z,0.00
2018-03-04T01:33:35.642Z,0.00
2018-03-04T01:34:35.599Z,0.00
2018-03-04T01:35:35.570Z,0.00
2018-03-04T01:36:35.494Z,0.00
2018-03-04T01:37:35.463Z,0.00
2018-03-04T01:38:35.408Z,0.00
2018-03-04T01:39:35.363Z,0.00
2018-03-04T01:40:35.319Z,0.00
2018-03-04T01:41:35.301Z,0.00
2018-03-04T01:42:35.229Z,0.00
2018-03-04T01:43:35.185Z,0.00
2018-03-04T01:44:35.137Z,0.00
2018-03-04T01:45:35.093Z,0.00
2018-03-04T01:46:35.067Z,0.00
2018-03-04T01:47:35.009Z,0.00
2018-03-04T01:48:34.973Z,0.00
2018-03-04T01:49:34.916Z,0.00
2018-03-04T01:50:34.868Z,0.00
2018-03-04T01:51:34.846Z,0.00
2018-03-04T01:52:34.798Z,0.00
2018-03-04T01:53:34.734Z,0.00
2018-03-04T01:54:34.690Z,0.00
2018-03-04T01:55:34.644Z,0.00
2018-03-04T01:56:34.600Z,0.00
2018-03-04T01:57:34.575Z,0.00
2018-03-04T01:58:34.506Z,0.00
2018-03-04T01:59:34.460Z,0.00
2018-03-04T02:00:34.419Z,0.00
2018-03-04T02:01:34.372Z,0.00
2018-03-04T02:02:34.357Z,0.00
2018-03-04T02:03:34.286Z,0.00
2018-03-04T02:04:44.508Z,0.00
2018-03-04T02:05:34.196Z,0.00
2018-03-04T02:06:34.143Z,0.00
2018-03-04T02:07:34.128Z,0.00
2018-03-04T02:08:34.057Z,0.00
2018-03-04T02:09:34.009Z,0.00
2018-03-04T02:10:33.970Z,0.00
2018-03-04T02:11:33.921Z,0.00
2018-03-04T02:12:33.905Z,0.00
2018-03-04T02:13:33.828Z,0.00
2018-03-04T02:14:33.789Z,0.00
2018-03-04T02:15:33.738Z,0.00
2018-03-04T02:16:33.700Z,0.00
2018-03-04T02:17:33.673Z,0.00
2018-03-04T02:18:33.614Z,0.00
2018-03-04T02:19:33.562Z,0.00
2018-03-04T02:20:33.518Z,0.00
2018-03-04T02:21:33.469Z,0.00
2018-03-04T02:22:33.420Z,0.00
2018-03-04T02:23:33.403Z,0.00
2018-03-04T02:24:33.337Z,0.00
2018-03-04T02:25:33.291Z,0.00
2018-03-04T02:26:33.250Z,0.00
2018-03-04T02:27:33.205Z,0.00
2018-03-04T02:28:33.231Z,0.00
2018-03-04T02:29:33.112Z,0.00
2018-03-04T02:30:33.076Z,0.00
2018-03-04T02:31:33.034Z,0.00
2018-03-04T02:32:32.979Z,0.00
2018-03-04T02:33:32.968Z,0.00
2018-03-04T02:34:32.883Z,0.00
2018-03-04T02:35:32.848Z,0.00
2018-03-04T02:36:32.817Z,0.00
2018-03-04T02:37:32.758Z,0.00
2018-03-04T02:38:32.738Z,0.00
2018-03-04T02:39:32.663Z,0.00
2018-03-04T02:40:32.633Z,0.00
2018-03-04T02:41:32.574Z,0.00
2018-03-04T02:42:32.532Z,0.00
2018-03-04T02:43:32.490Z,0.00
2018-03-04T02:44:32.463Z,0.00
2018-03-04T02:45:32.401Z,0.00
2018-03-04T02:46:32.360Z,0.00
2018-03-04T02:47:32.313Z,0.00
2018-03-04T02:48:32.272Z,0.00
2018-03-04T02:49:32.272Z,0.00
2018-03-04T02:50:32.230Z,0.00
2018-03-04T02:51:32.136Z,0.00
2018-03-04T02:52:32.083Z,0.00
2018-03-04T02:53:32.043Z,0.00
2018-03-04T02:54:32.017Z,0.00
2018-03-04T02:55:31.955Z,0.00
2018-03-04T02:56:31.919Z,0.00
2018-03-04T02:57:31.864Z,0.00
2018-03-04T02:58:31.807Z,0.00
2018-03-04T02:59:31.793Z,0.00
2018-03-04T03:00:31.732Z,0.00
2018-03-04T03:01:31.687Z,0.00
2018-03-04T03:02:31.639Z,0.00
2018-03-04T03:03:31.599Z,0.00
2018-03-04T03:04:31.566Z,0.00
2018-03-04T03:05:31.512Z,0.00
2018-03-04T03:06:31.453Z,0.00
2018-03-04T03:07:31.418Z,0.00
2018-03-04T03:08:31.369Z,0.00
2018-03-04T03:09:31.354Z,0.00
2018-03-04T03:10:31.278Z,0.00
2018-03-04T03:11:31.238Z,0.00
2018-03-04T03:12:31.182Z,0.00
2018-03-04T03:13:31.150Z,0.00
2018-03-04T03:14:31.102Z,0.00
2018-03-04T03:15:31.073Z,0.00
2018-03-04T03:16:31.008Z,0.00
2018-03-04T03:17:30.968Z,0.00
2018-03-04T03:18:30.921Z,0.00
2018-03-04T03:19:30.883Z,0.00
2018-03-04T03:20:30.848Z,0.00
2018-03-04T03:21:41.033Z,0.00
2018-03-04T03:22:30.744Z,0.00
2018-03-04T03:23:30.703Z,0.00
2018-03-04T03:24:30.656Z,0.00
2018-03-04T03:25:30.637Z,0.00
2018-03-04T03:26:30.563Z,0.00
2018-03-04T03:27:30.522Z,0.00
2018-03-04T03:28:30.478Z,0.00
2018-03-04T03:29:30.432Z,0.00
2018-03-04T03:30:30.384Z,0.00
2018-03-04T03:31:30.356Z,0.00
2018-03-04T03:32:30.301Z,0.00
2018-03-04T03:33:30.257Z,0.00
2018-03-04T03:34:30.207Z,0.00
2018-03-04T03:35:30.169Z,0.00
2018-03-04T03:36:30.135Z,0.00
2018-03-04T03:37:30.078Z,0.00
2018-03-04T03:38:30.031Z,0.00
2018-03-04T03:39:29.983Z,0.00
2018-03-04T03:40:29.940Z,0.00
2018-03-04T03:41:29.912Z,0.00
2018-03-04T03:42:29.854Z,0.00
2018-03-04T03:43:29.812Z,0.00
2018-03-04T03:44:29.761Z,0.00
2018-03-04T03:45:29.715Z,0.00
2018-03-04T03:46:29.694Z,0.00
2018-03-04T03:47:29.627Z,0.00
2018-03-04T03:48:29.584Z,0.00
2018-03-04T03:49:29.543Z,0.00
2018-03-04T03:50:29.492Z,0.00
2018-03-04T03:51:29.469Z,0.00
2018-03-04T03:52:29.403Z,0.00
2018-03-04T03:53:29.361Z,0.00
2018-03-04T03:54:29.310Z,0.00
2018-03-04T03:55:29.276Z,0.00
2018-03-04T03:56:29.221Z,0.00
2018-03-04T03:57:29.202Z,0.00
2018-03-04T03:58:29.132Z,0.00
2018-03-04T03:59:29.101Z,0.00
2018-03-04T04:00:29.043Z,0.00
2018-03-04T04:01:29.008Z,0.00
2018-03-04T04:02:28.984Z,0.00
2018-03-04T04:03:28.919Z,0.00
2018-03-04T04:04:28.870Z,0.00
2018-03-04T04:05:28.832Z,0.00
2018-03-04T04:06:28.778Z,0.00
2018-03-04T04:07:28.753Z,0.00
2018-03-04T04:08:28.685Z,0.00
2018-03-04T04:09:28.658Z,0.00
2018-03-04T04:10:28.592Z,0.00
2018-03-04T04:11:28.553Z,0.00
2018-03-04T04:12:28.537Z,0.00
2018-03-04T04:13:28.477Z,0.00
2018-03-04T04:14:28.435Z,0.00
2018-03-04T04:15:28.385Z,0.00
2018-03-04T04:16:28.333Z,0.00
2018-03-04T04:17:28.313Z,0.00
2018-03-04T04:18:28.247Z,0.00
2018-03-04T04:19:28.208Z,0.00
2018-03-04T04:20:38.572Z,0.00
2018-03-04T04:21:38.606Z,0.00
2018-03-04T04:22:28.090Z,0.00
2018-03-04T04:23:28.029Z,0.00
2018-03-04T04:24:27.979Z,0.00
2018-03-04T04:25:27.941Z,0.00
2018-03-04T04:26:27.885Z,0.00
2018-03-04T04:27:27.848Z,0.00
2018-03-04T04:28:27.811Z,0.00
2018-03-04T04:29:27.771Z,0.00
2018-03-04T04:30:27.710Z,0.00
2018-03-04T04:31:27.663Z,0.00
2018-03-04T04:32:27.620Z,0.00
2018-03-04T04:33:27.600Z,0.00
2018-03-04T04:34:27.525Z,0.00
2018-03-04T04:35:27.476Z,0.00
2018-03-04T04:36:27.439Z,0.00
2018-03-04T04:37:27.387Z,0.00
2018-03-04T04:38:27.371Z,0.00
2018-03-04T04:39:27.320Z,0.00
2018-03-04T04:40:37.663Z,0.00
2018-03-04T04:41:27.223Z,0.00
2018-03-04T04:42:27.166Z,0.00
2018-03-04T04:43:27.118Z,0.00
2018-03-04T04:44:27.134Z,0.00
2018-03-04T04:45:27.037Z,0.00
2018-03-04T04:46:26.995Z,0.00
2018-03-04T04:47:26.946Z,0.00
2018-03-04T04:48:26.908Z,0.00
2018-03-04T04:49:26.876Z,0.00
2018-03-04T04:50:26.812Z,0.00
2018-03-04T04:51:26.769Z,0.00
2018-03-04T04:52:26.722Z,0.00
2018-03-04T04:53:26.687Z,0.00
2018-03-04T04:54:26.656Z,0.00
2018-03-04T04:55:26.588Z,0.00
2018-03-04T04:56:26.545Z,0.00
2018-03-04T04:57:26.507Z,0.00
2018-03-04T04:58:26.459Z,0.00
2018-03-04T04:59:26.449Z,0.00
2018-03-04T05:00:37.699Z,0.00
2018-03-04T05:01:26.319Z,0.00
2018-03-04T05:02:26.282Z,0.00
2018-03-04T05:03:26.238Z,0.00
2018-03-04T05:04:26.227Z,0.00
2018-03-04T05:05:26.141Z,0.00
2018-03-04T05:06:26.101Z,0.00
2018-03-04T05:07:26.052Z,0.00
2018-03-04T05:08:26.018Z,0.00
2018-03-04T05:09:25.977Z,0.00
2018-03-04T05:10:25.953Z,0.00
2018-03-04T05:11:25.887Z,0.00
2018-03-04T05:12:25.833Z,0.00
2018-03-04T05:13:25.786Z,0.00
2018-03-04T05:14:25.745Z,0.00
2018-03-04T05:15:25.735Z,0.00
2018-03-04T05:16:25.665Z,0.00
2018-03-04T05:17:25.612Z,0.00
2018-03-04T05:18:25.564Z,0.00
2018-03-04T05:19:35.720Z,0.00
2018-03-04T05:20:25.511Z,0.00
2018-03-04T05:21:25.438Z,0.00
2018-03-04T05:22:25.396Z,0.00
2018-03-04T05:23:25.349Z,0.00
2018-03-04T05:24:25.337Z,0.00
2018-03-04T05:25:25.280Z,0.00
2018-03-04T05:26:25.216Z,0.00
2018-03-04T05:27:25.181Z,0.00
2018-03-04T05:28:25.128Z,0.00
2018-03-04T05:29:25.084Z,0.00
2018-03-04T05:30:25.067Z,0.00
2018-03-04T05:31:24.989Z,0.00
2018-03-04T05:32:24.962Z,0.00
2018-03-04T05:33:24.935Z,0.00
2018-03-04T05:34:24.861Z,0.00
2018-03-04T05:35:24.821Z,0.00
2018-03-04T05:36:24.792Z,0.00
2018-03-04T05:37:24.722Z,0.00
2018-03-04T05:38:24.678Z,0.00
2018-03-04T05:39:34.758Z,0.00
2018-03-04T05:40:24.599Z,0.00
2018-03-04T05:41:24.573Z,0.00
2018-03-04T05:42:24.509Z,0.00
2018-03-04T05:43:24.456Z,0.00
2018-03-04T05:44:24.418Z,0.00
2018-03-04T05:45:24.373Z,0.00
2018-03-04T05:46:24.351Z,0.00
2018-03-04T05:47:24.275Z,0.00
2018-03-04T05:48:24.234Z,0.00
2018-03-04T05:49:24.193Z,0.00
2018-03-04T05:50:24.158Z,0.00
2018-03-04T05:51:24.129Z,0.00
2018-03-04T05:52:24.058Z,0.00
2018-03-04T05:53:24.020Z,0.00
2018-03-04T05:54:23.976Z,0.00
2018-03-04T05:55:23.934Z,0.00
2018-03-04T05:56:23.883Z,0.00
2018-03-04T05:57:23.885Z,0.00
2018-03-04T05:58:23.808Z,0.00
2018-03-04T05:59:33.798Z,0.00
2018-03-04T06:00:23.715Z,0.00
2018-03-04T06:01:23.658Z,0.00
2018-03-04T06:02:23.655Z,0.00
2018-03-04T06:03:23.578Z,0.00
2018-03-04T06:04:23.527Z,0.00
2018-03-04T06:05:23.480Z,5.63
2018-03-04T06:06:23.438Z,5.63
2018-03-04T06:07:23.418Z,5.63
2018-03-04T06:08:23.370Z,5.63
2018-03-04T06:09:23.314Z,5.63
2018-03-04T06:10:23.264Z,5.63
2018-03-04T06:11:23.227Z,5.63
2018-03-04T06:12:23.221Z,5.63
2018-03-04T06:13:23.134Z,5.63
2018-03-04T06:14:23.086Z,5.63
2018-03-04T06:15:23.051Z,5.63
2018-03-04T06:16:22.999Z,11.25
2018-03-04T06:17:22.975Z,11.25
2018-03-04T06:18:22.917Z,11.25
2018-03-04T06:19:22.865Z,16.88
2018-03-04T06:20:22.826Z,16.88
2018-03-04T06:21:22.774Z,16.88
2018-03-04T06:22:22.754Z,16.88
2018-03-04T06:23:22.710Z,22.50
2018-03-04T06:24:22.651Z,22.50
2018-03-04T06:25:22.600Z,28.13
2018-03-04T06:26:22.557Z,28.13
2018-03-04T06:27:22.536Z,33.75
2018-03-04T06:28:22.470Z,33.75
2018-03-04T06:29:22.432Z,39.38
2018-03-04T06:30:22.372Z,39.38
2018-03-04T06:31:22.336Z,45.00
2018-03-04T06:32:22.321Z,45.00
2018-03-04T06:33:22.245Z,45.00
2018-03-04T06:34:22.204Z,50.63
2018-03-04T06:35:22.173Z,50.63
2018-03-04T06:36:22.110Z,50.63
2018-03-04T06:37:22.070Z,50.63
2018-03-04T06:38:22.057Z,56.25
2018-03-04T06:39:21.982Z,56.25
2018-03-04T06:40:21.938Z,56.25
2018-03-04T06:41:21.895Z,61.88
2018-03-04T06:42:21.850Z,67.50
2018-03-04T06:43:21.860Z,73.13
2018-03-04T06:44:21.755Z,73.13
2018-03-04T06:45:21.713Z,78.75
2018-03-04T06:46:21.667Z,78.75
2018-03-04T06:47:21.626Z,78.75
2018-03-04T06:48:21.608Z,78.75
2018-03-04T06:49:21.539Z,84.38
2018-03-04T06:50:21.499Z,84.38
2018-03-04T06:51:21.453Z,90.00
2018-03-04T06:52:21.407Z,95.63
2018-03-04T06:53:21.387Z,106.88
2018-03-04T06:54:21.317Z,112.50
2018-03-04T06:55:21.275Z,112.50
2018-03-04T06:56:21.240Z,112.50
2018-03-04T06:57:21.188Z,118.13
2018-03-04T06:58:30.861Z,118.13
2018-03-04T06:59:21.098Z,123.75
2018-03-04T07:00:21.048Z,129.38
2018-03-04T07:01:21.009Z,135.00
2018-03-04T07:02:20.958Z,135.00
2018-03-04T07:03:20.915Z,135.00
2018-03-04T07:04:20.911Z,140.63
2018-03-04T07:05:20.842Z,151.88
2018-03-04T07:06:20.790Z,157.50
2018-03-04T07:07:20.759Z,163.13
2018-03-04T07:08:20.697Z,163.13
2018-03-04T07:09:20.680Z,168.75
2018-03-04T07:10:20.608Z,168.75
2018-03-04T07:11:20.562Z,174.38
2018-03-04T07:12:21.414Z,168.75
2018-03-04T07:13:20.484Z,163.13
2018-03-04T07:14:20.471Z,168.75
2018-03-04T07:15:20.397Z,185.63
2018-03-04T07:16:20.349Z,196.88
2018-03-04T07:17:20.307Z,208.13
2018-03-04T07:18:20.270Z,196.88
2018-03-04T07:19:20.243Z,196.88
2018-03-04T07:20:20.175Z,208.13
2018-03-04T07:21:20.130Z,213.75
2018-03-04T07:22:20.085Z,225.00
2018-03-04T07:23:20.055Z,230.63
2018-03-04T07:24:20.008Z,247.50
2018-03-04T07:25:28.893Z,258.75
2018-03-04T07:26:19.922Z,281.25
2018-03-04T07:27:19.872Z,309.38
2018-03-04T07:28:19.852Z,337.50
2018-03-04T07:29:19.784Z,326.25
2018-03-04T07:30:19.764Z,326.25
2018-03-04T07:31:19.704Z,326.25
2018-03-04T07:32:19.662Z,320.63
2018-03-04T07:33:19.630Z,320.63
2018-03-04T07:34:19.581Z,320.63
2018-03-04T07:35:19.545Z,438.75
2018-03-04T07:36:19.477Z,360.00
2018-03-04T07:37:19.430Z,360.00
2018-03-04T07:38:19.392Z,320.63
2018-03-04T07:39:19.350Z,303.75
2018-03-04T07:40:19.330Z,337.50
2018-03-04T07:41:19.266Z,292.50
2018-03-04T07:42:19.213Z,331.88
2018-03-04T07:43:19.170Z,478.13
2018-03-04T07:44:19.136Z,534.38
2018-03-04T07:45:19.117Z,545.63
2018-03-04T07:46:19.052Z,545.63
2018-03-04T07:47:19.024Z,573.75
2018-03-04T07:48:18.957Z,579.38
2018-03-04T07:49:18.919Z,585.00
2018-03-04T07:50:18.878Z,596.25
2018-03-04T07:51:18.857Z,613.13
2018-03-04T07:52:18.788Z,669.38
2018-03-04T07:53:18.749Z,725.63
2018-03-04T07:54:18.736Z,770.63
2018-03-04T07:55:18.674Z,804.38
2018-03-04T07:56:18.644Z,815.63
2018-03-04T07:57:18.586Z,810.00
2018-03-04T07:58:18.553Z,798.75
2018-03-04T07:59:18.514Z,770.63
2018-03-04T08:00:28.905Z,742.50
2018-03-04T08:01:18.445Z,725.63
2018-03-04T08:02:18.387Z,725.63
2018-03-04T08:03:18.348Z,765.00
2018-03-04T08:04:18.302Z,793.13
2018-03-04T08:05:18.260Z,781.88
2018-03-04T08:06:18.271Z,826.88
2018-03-04T08:07:18.191Z,860.63
2018-03-04T08:08:18.142Z,928.13
2018-03-04T08:09:18.097Z,973.13
2018-03-04T08:10:18.055Z,1192.50
2018-03-04T08:11:18.019Z,1305.00
2018-03-04T08:12:18.011Z,1513.13
2018-03-04T08:13:17.946Z,1726.88
2018-03-04T08:14:17.916Z,2013.75
2018-03-04T08:15:17.868Z,2328.75
2018-03-04T08:16:17.821Z,2638.13
2018-03-04T08:17:17.809Z,2902.50
2018-03-04T08:18:17.745Z,2576.25
2018-03-04T08:19:17.705Z,2587.50
2018-03-04T08:20:17.671Z,2250.00
2018-03-04T08:21:17.628Z,2047.50
2018-03-04T08:22:17.646Z,1760.63
2018-03-04T08:23:17.580Z,1546.88
2018-03-04T08:24:17.520Z,1451.25
2018-03-04T08:25:17.477Z,753.75
2018-03-04T08:26:17.433Z,815.63
2018-03-04T08:27:17.434Z,742.50
2018-03-04T08:28:17.379Z,967.50
2018-03-04T08:29:17.324Z,916.88
2018-03-04T08:30:19.856Z,1023.75
2018-03-04T08:31:17.245Z,1074.38
2018-03-04T08:32:17.214Z,1293.75
2018-03-04T08:33:17.183Z,1125.00
2018-03-04T08:34:17.134Z,984.38
2018-03-04T08:35:17.102Z,1040.63
2018-03-04T08:36:17.053Z,1231.88
2018-03-04T08:37:17.071Z,1591.88
2018-03-04T08:38:17.001Z,1597.50
2018-03-04T08:39:16.950Z,1721.25
2018-03-04T08:40:17.040Z,1687.50
2018-03-04T08:41:16.866Z,1738.13
2018-03-04T08:42:16.848Z,1440.00
2018-03-04T08:43:16.809Z,1625.63
2018-03-04T08:44:16.773Z,1552.50
2018-03-04T08:45:16.731Z,1220.63
2018-03-04T08:46:16.705Z,1035.00
2018-03-04T08:47:16.700Z,1170.00
2018-03-04T08:48:16.618Z,1355.63
2018-03-04T08:49:16.598Z,1428.75
2018-03-04T08:50:16.543Z,1856.25
2018-03-04T08:51:16.488Z,1811.25
2018-03-04T08:52:16.482Z,1670.63
2018-03-04T08:53:16.423Z,1552.50
2018-03-04T08:54:16.397Z,1423.13
2018-03-04T08:55:16.339Z,1378.13
2018-03-04T08:56:16.340Z,1350.00
2018-03-04T08:57:16.268Z,1344.38
2018-03-04T08:58:16.223Z,1389.38
2018-03-04T08:59:16.229Z,1141.88
2018-03-04T09:00:16.155Z,1119.38
2018-03-04T09:01:16.115Z,1265.63
2018-03-04T09:02:16.155Z,1316.25
2018-03-04T09:03:16.047Z,1366.88
2018-03-04T09:04:16.030Z,1344.38
2018-03-04T09:05:15.968Z,1366.88
2018-03-04T09:06:15.951Z,1485.00
2018-03-04T09:07:15.900Z,1513.13
2018-03-04T09:08:15.870Z,1513.13
2018-03-04T09:09:15.859Z,1608.75
2018-03-04T09:10:15.780Z,1670.63
2018-03-04T09:11:15.802Z,1704.38
2018-03-04T09:12:15.710Z,1462.50
2018-03-04T09:13:15.700Z,1873.13
2018-03-04T09:14:15.738Z,1918.13
2018-03-04T09:15:15.640Z,2075.63
2018-03-04T09:16:15.760Z,2036.25
2018-03-04T09:17:15.555Z,2013.75
2018-03-04T09:18:15.496Z,1530.00
2018-03-04T09:19:15.474Z,978.75
2018-03-04T09:20:15.468Z,961.88
2018-03-04T09:21:15.423Z,1743.75
2018-03-04T09:22:15.363Z,1192.50
2018-03-04T09:23:15.353Z,1845.00
2018-03-04T09:24:15.316Z,1991.25
2018-03-04T09:25:15.275Z,1428.75
2018-03-04T09:26:15.222Z,1400.63
2018-03-04T09:27:15.836Z,1175.63
2018-03-04T09:28:15.177Z,1361.25
2018-03-04T09:29:15.141Z,2019.38
2018-03-04T09:30:15.478Z,1181.25
2018-03-04T09:31:15.044Z,1355.63
2018-03-04T09:32:15.010Z,1530.00
2018-03-04T09:33:14.978Z,1248.75
2018-03-04T09:34:14.937Z,1299.38
2018-03-04T09:35:14.931Z,2272.50
2018-03-04T09:36:14.857Z,1091.25
2018-03-04T09:37:14.819Z,933.75
2018-03-04T09:38:14.784Z,826.88
2018-03-04T09:39:14.749Z,787.50
2018-03-04T09:40:14.757Z,804.38
2018-03-04T09:41:14.711Z,821.25
2018-03-04T09:42:14.653Z,866.25
2018-03-04T09:43:14.614Z,922.50
2018-03-04T09:44:14.577Z,984.38
2018-03-04T09:45:15.050Z,1023.75
2018-03-04T09:46:14.541Z,1074.38
2018-03-04T09:47:14.477Z,1046.25
2018-03-04T09:48:14.435Z,973.13
2018-03-04T09:49:14.376Z,990.00
2018-03-04T09:50:14.344Z,1040.63
2018-03-04T09:51:14.322Z,1119.38
2018-03-04T09:52:14.276Z,1265.63
2018-03-04T09:53:14.231Z,1327.50
2018-03-04T09:54:14.189Z,1220.63
2018-03-04T09:55:14.159Z,1226.25
2018-03-04T09:56:14.134Z,1344.38
2018-03-04T09:57:14.112Z,1175.63
2018-03-04T09:58:14.029Z,1035.00
2018-03-04T09:59:14.019Z,961.88
2018-03-04T10:00:13.952Z,973.13
2018-03-04T10:01:13.944Z,973.13
2018-03-04T10:02:13.876Z,995.63
2018-03-04T10:03:13.847Z,1046.25
2018-03-04T10:04:13.806Z,1096.88
2018-03-04T10:05:13.766Z,1153.13
2018-03-04T10:06:13.763Z,1265.63
2018-03-04T10:07:13.698Z,1456.88
2018-03-04T10:08:13.669Z,1546.88
2018-03-04T10:09:13.628Z,2255.63
2018-03-04T10:10:13.588Z,2525.63
2018-03-04T10:11:13.533Z,2081.25
2018-03-04T10:12:13.530Z,1361.25
2018-03-04T10:13:13.459Z,1462.50
2018-03-04T10:14:13.416Z,1530.00
2018-03-04T10:15:13.378Z,2300.63
2018-03-04T10:16:13.343Z,2176.88
2018-03-04T10:17:13.327Z,2019.38
2018-03-04T10:18:13.273Z,1608.75
2018-03-04T10:19:13.241Z,2115.00
2018-03-04T10:20:13.245Z,2205.00
2018-03-04T10:21:13.173Z,2086.88
2018-03-04T10:22:13.252Z,1963.13
2018-03-04T10:23:13.090Z,2002.50
2018-03-04T10:24:13.056Z,2008.13
2018-03-04T10:25:13.010Z,2030.63
2018-03-04T10:26:12.986Z,2120.63
2018-03-04T10:27:12.975Z,2176.88
2018-03-04T10:28:12.905Z,2261.25
2018-03-04T10:29:12.865Z,2221.88
2018-03-04T10:30:12.856Z,1760.63
2018-03-04T10:31:12.803Z,2143.13
2018-03-04T10:32:12.788Z,2340.00
2018-03-04T10:33:12.862Z,2452.50
2018-03-04T10:34:12.694Z,2559.38
2018-03-04T10:35:12.663Z,1642.50
2018-03-04T10:36:12.635Z,1850.63
2018-03-04T10:37:12.651Z,1445.63
2018-03-04T10:38:12.579Z,1378.13
2018-03-04T10:39:12.516Z,1704.38
2018-03-04T10:40:12.508Z,3009.38
2018-03-04T10:41:12.484Z,3105.00
2018-03-04T10:42:12.478Z,3031.88
2018-03-04T10:43:12.405Z,2981.25
2018-03-04T10:44:12.346Z,2694.38
2018-03-04T10:45:12.316Z,2891.25
2018-03-04T10:46:12.279Z,2565.00
2018-03-04T10:47:12.297Z,2722.50
2018-03-04T10:48:12.221Z,1665.00
2018-03-04T10:49:12.194Z,1411.88
2018-03-04T10:50:12.183Z,1395.00
2018-03-04T10:51:12.121Z,1237.50
2018-03-04T10:52:12.100Z,1147.50
2018-03-04T10:53:12.049Z,1411.88
2018-03-04T10:54:12.018Z,1260.00
2018-03-04T10:55:11.977Z,1147.50
2018-03-04T10:56:11.950Z,1299.38
2018-03-04T10:57:12.042Z,1305.00
2018-03-04T10:58:11.898Z,967.50
2018-03-04T10:59:11.847Z,1181.25
2018-03-04T11:00:11.810Z,967.50
2018-03-04T11:01:11.776Z,1119.38
2018-03-04T11:02:11.740Z,1366.88
2018-03-04T11:03:11.722Z,1192.50
2018-03-04T11:04:11.675Z,2356.88
2018-03-04T11:05:11.633Z,1192.50
2018-03-04T11:06:11.603Z,1091.25
2018-03-04T11:07:11.559Z,1243.13
2018-03-04T11:08:11.559Z,1141.88
2018-03-04T11:09:11.476Z,1884.38
2018-03-04T11:10:11.450Z,2739.38
2018-03-04T11:11:11.411Z,3048.75
2018-03-04T11:12:20.032Z,3183.75
2018-03-04T11:13:11.342Z,1479.38
2018-03-04T11:14:11.301Z,1558.13
2018-03-04T11:15:11.265Z,1614.38
2018-03-04T11:16:11.235Z,2131.88
2018-03-04T11:17:11.210Z,2739.38
2018-03-04T11:18:11.181Z,2722.50
2018-03-04T11:19:11.117Z,2525.63
2018-03-04T11:20:11.098Z,2536.88
2018-03-04T11:21:11.036Z,2784.38
2018-03-04T11:22:11.009Z,2075.63
2018-03-04T11:23:11.006Z,1569.38
2018-03-04T11:24:10.935Z,1648.13
2018-03-04T11:25:10.911Z,765.00
2018-03-04T11:26:10.876Z,1766.25
2018-03-04T11:27:10.974Z,2970.00
2018-03-04T11:28:10.821Z,2902.50
2018-03-04T11:29:10.779Z,2992.50
2018-03-04T11:30:10.717Z,2863.13
2018-03-04T11:31:10.686Z,2818.13
2018-03-04T11:32:10.680Z,2795.63
2018-03-04T11:33:10.636Z,2812.50
2018-03-04T11:34:10.569Z,2778.75
2018-03-04T11:35:10.545Z,2700.00
2018-03-04T11:36:10.515Z,2632.50
2018-03-04T11:37:10.480Z,2660.63
2018-03-04T11:38:10.431Z,2610.00
2018-03-04T11:39:10.431Z,2649.38
2018-03-04T11:40:10.369Z,2683.13
2018-03-04T11:41:10.332Z,2705.63
2018-03-04T11:42:10.299Z,2694.38
2018-03-04T11:43:10.263Z,2750.63
2018-03-04T11:44:10.296Z,2733.75
2018-03-04T11:45:10.215Z,2790.00
2018-03-04T11:46:10.182Z,2835.00
2018-03-04T11:47:10.154Z,2846.25
2018-03-04T11:48:10.100Z,2835.00
2018-03-04T11:49:10.087Z,2846.25
2018-03-04T11:50:10.022Z,2784.38
2018-03-04T11:51:10.003Z,2705.63
2018-03-04T11:52:09.959Z,2655.00
2018-03-04T11:53:09.926Z,2722.50
2018-03-04T11:54:09.921Z,2643.75
2018-03-04T11:55:10.606Z,2598.75
2018-03-04T11:56:09.827Z,2643.75
2018-03-04T11:57:09.799Z,2638.13
2018-03-04T11:58:09.779Z,2598.75
2018-03-04T11:59:09.744Z,2643.75
2018-03-04T12:00:09.719Z,2655.00
2018-03-04T12:01:09.694Z,2671.88
2018-03-04T12:02:09.632Z,2536.88
2018-03-04T12:03:09.607Z,2576.25
2018-03-04T12:04:09.580Z,2553.75
2018-03-04T12:05:09.573Z,2593.13
2018-03-04T12:06:09.507Z,2643.75
2018-03-04T12:07:09.509Z,2655.00
2018-03-04T12:08:09.440Z,2638.13
2018-03-04T12:09:09.400Z,2559.38
2018-03-04T12:10:09.402Z,2559.38
2018-03-04T12:11:09.340Z,2553.75
2018-03-04T12:12:09.312Z,2553.75
2018-03-04T12:13:09.275Z,2581.88
2018-03-04T12:14:09.243Z,2458.13
2018-03-04T12:15:09.234Z,2497.50
2018-03-04T12:16:09.186Z,2565.00
2018-03-04T12:17:09.177Z,2581.88
2018-03-04T12:18:09.121Z,2536.88
2018-03-04T12:19:09.090Z,2536.88
2018-03-04T12:20:09.075Z,2632.50
2018-03-04T12:21:09.017Z,2553.75
2018-03-04T12:22:09.033Z,2576.25
2018-03-04T12:23:08.967Z,2531.25
2018-03-04T12:24:08.928Z,2480.63
2018-03-04T12:25:08.894Z,2446.88
2018-03-04T12:26:08.884Z,2514.38
2018-03-04T12:27:08.829Z,2520.00
2018-03-04T12:28:08.798Z,2508.75
2018-03-04T12:29:08.758Z,2463.75
2018-03-04T12:30:08.725Z,2480.63
2018-03-04T12:31:08.731Z,2463.75
2018-03-04T12:32:08.672Z,2435.63
2018-03-04T12:33:08.635Z,2452.50
2018-03-04T12:34:08.597Z,2463.75
2018-03-04T12:35:08.579Z,2480.63
2018-03-04T12:36:08.559Z,2430.00
2018-03-04T12:37:08.507Z,2356.88
2018-03-04T12:38:08.470Z,2323.13
2018-03-04T12:39:08.473Z,2317.50
2018-03-04T12:40:08.411Z,2340.00
2018-03-04T12:41:08.408Z,2311.88
2018-03-04T12:42:08.372Z,2261.25
2018-03-04T12:43:08.318Z,2323.13
2018-03-04T12:44:08.288Z,2351.25
2018-03-04T12:45:08.252Z,2362.50